sensor_id;sensor_type;location;lat;lon;timestamp;temperature;humidity
40023;DHT22;25713;-35.352;149.036;2024-01-10T00:02:18;20.90;99.90
40023;DHT22;25713;-35.352;149.036;2024-01-10T00:04:48;20.90;99.90
40023;DHT22;25713;-35.352;149.036;2024-01-10T00:07:17;21.00;99.90
40023;DHT22;25713;-35.352;149.036;2024-01-10T00:09:47;21.00;99.90
40023;DHT22;25713;-35.352;149.036;2024-01-10T00:12:16;21.00;99.90
40023;DHT22;25713;-35.352;149.036;2024-01-10T00:14:49;21.10;99.90
40023;DHT22;25713;-35.352;149.036;2024-01-10T00:17:19;21.00;99.90
40023;DHT22;25713;-35.352;149.036;2024-01-10T00:19:48;21.10;99.90
40023;DHT22;25713;-35.352;149.036;2024-01-10T00:22:18;21.10;99.90
40023;DHT22;25713;-35.352;149.036;2024-01-10T00:24:47;21.10;99.90
40023;DHT22;25713;-35.352;149.036;2024-01-10T00:27:18;21.10;99.90
40023;DHT22;25713;-35.352;149.036;2024-01-10T00:29:51;21.20;99.90
40023;DHT22;25713;-35.352;149.036;2024-01-10T00:32:21;21.20;99.90
40023;DHT22;25713;-35.352;149.036;2024-01-10T00:34:51;21.20;99.90
40023;DHT22;25713;-35.352;149.036;2024-01-10T00:37:21;21.30;99.90
40023;DHT22;25713;-35.352;149.036;2024-01-10T00:39:52;21.30;99.90
40023;DHT22;25713;-35.352;149.036;2024-01-10T00:42:22;21.30;99.90
40023;DHT22;25713;-35.352;149.036;2024-01-10T00:44:54;21.30;99.90
40023;DHT22;25713;-35.352;149.036;2024-01-10T00:47:24;21.40;99.90
40023;DHT22;25713;-35.352;149.036;2024-01-10T00:49:55;21.40;99.90
40023;DHT22;25713;-35.352;149.036;2024-01-10T00:52:25;21.40;99.90
40023;DHT22;25713;-35.352;149.036;2024-01-10T00:54:55;21.50;99.90
40023;DHT22;25713;-35.352;149.036;2024-01-10T00:57:25;21.50;99.90
40023;DHT22;25713;-35.352;149.036;2024-01-10T00:59:58;21.60;99.90
40023;DHT22;25713;-35.352;149.036;2024-01-10T01:02:29;21.60;99.90
40023;DHT22;25713;-35.352;149.036;2024-01-10T01:05:00;21.60;99.90
40023;DHT22;25713;-35.352;149.036;2024-01-10T01:07:34;21.60;99.90
40023;DHT22;25713;-35.352;149.036;2024-01-10T01:10:05;21.70;99.90
40023;DHT22;25713;-35.352;149.036;2024-01-10T01:12:35;21.80;99.90
40023;DHT22;25713;-35.352;149.036;2024-01-10T01:15:08;21.80;99.90
40023;DHT22;25713;-35.352;149.036;2024-01-10T01:17:40;21.80;99.90
40023;DHT22;25713;-35.352;149.036;2024-01-10T01:20:12;21.80;99.90
40023;DHT22;25713;-35.352;149.036;2024-01-10T01:22:44;21.80;99.90
40023;DHT22;25713;-35.352;149.036;2024-01-10T01:25:15;21.80;99.90
40023;DHT22;25713;-35.352;149.036;2024-01-10T01:27:47;21.90;99.90
40023;DHT22;25713;-35.352;149.036;2024-01-10T01:30:25;22.00;99.90
40023;DHT22;25713;-35.352;149.036;2024-01-10T01:32:58;21.90;99.90
40023;DHT22;25713;-35.352;149.036;2024-01-10T01:35:33;21.90;99.90
40023;DHT22;25713;-35.352;149.036;2024-01-10T01:38:06;22.10;99.90
40023;DHT22;25713;-35.352;149.036;2024-01-10T01:40:36;22.10;99.90
40023;DHT22;25713;-35.352;149.036;2024-01-10T01:43:20;22.10;99.90
40023;DHT22;25713;-35.352;149.036;2024-01-10T01:45:54;22.10;99.90
40023;DHT22;25713;-35.352;149.036;2024-01-10T01:48:26;22.20;99.90
40023;DHT22;25713;-35.352;149.036;2024-01-10T01:50:59;22.50;99.90
40023;DHT22;25713;-35.352;149.036;2024-01-10T01:53:30;22.40;99.90
40023;DHT22;25713;-35.352;149.036;2024-01-10T01:56:03;22.50;99.90
40023;DHT22;25713;-35.352;149.036;2024-01-10T01:58:37;22.50;99.90
40023;DHT22;25713;-35.352;149.036;2024-01-10T02:01:14;22.70;99.80
40023;DHT22;25713;-35.352;149.036;2024-01-10T02:03:45;22.60;99.60
40023;DHT22;25713;-35.352;149.036;2024-01-10T02:06:16;22.70;99.10
40023;DHT22;25713;-35.352;149.036;2024-01-10T02:08:46;22.70;99.50
40023;DHT22;25713;-35.352;149.036;2024-01-10T02:11:17;22.60;99.60
40023;DHT22;25713;-35.352;149.036;2024-01-10T02:13:47;22.70;99.90
40023;DHT22;25713;-35.352;149.036;2024-01-10T02:16:25;22.90;99.20
40023;DHT22;25713;-35.352;149.036;2024-01-10T02:18:55;22.80;99.80
40023;DHT22;25713;-35.352;149.036;2024-01-10T02:21:27;22.80;99.50
40023;DHT22;25713;-35.352;149.036;2024-01-10T02:24:01;22.80;99.40
40023;DHT22;25713;-35.352;149.036;2024-01-10T02:26:38;22.80;99.60
40023;DHT22;25713;-35.352;149.036;2024-01-10T02:29:09;22.70;99.90
40023;DHT22;25713;-35.352;149.036;2024-01-10T02:31:39;22.70;99.90
40023;DHT22;25713;-35.352;149.036;2024-01-10T02:34:10;22.60;99.90
40023;DHT22;25713;-35.352;149.036;2024-01-10T02:36:40;22.70;99.40
40023;DHT22;25713;-35.352;149.036;2024-01-10T02:39:12;22.90;99.90
40023;DHT22;25713;-35.352;149.036;2024-01-10T02:41:50;22.90;99.60
40023;DHT22;25713;-35.352;149.036;2024-01-10T02:44:21;22.80;99.40
40023;DHT22;25713;-35.352;149.036;2024-01-10T02:46:51;22.90;97.80
40023;DHT22;25713;-35.352;149.036;2024-01-10T02:49:23;23.10;96.80
40023;DHT22;25713;-35.352;149.036;2024-01-10T02:51:53;23.10;97.10
40023;DHT22;25713;-35.352;149.036;2024-01-10T02:54:24;23.20;95.20
40023;DHT22;25713;-35.352;149.036;2024-01-10T02:56:57;23.30;93.50
40023;DHT22;25713;-35.352;149.036;2024-01-10T02:59:29;23.40;93.90
40023;DHT22;25713;-35.352;149.036;2024-01-10T03:01:59;23.60;93.70
40023;DHT22;25713;-35.352;149.036;2024-01-10T03:04:31;23.70;93.80
40023;DHT22;25713;-35.352;149.036;2024-01-10T03:07:03;23.60;94.20
40023;DHT22;25713;-35.352;149.036;2024-01-10T03:09:34;23.70;94.00
40023;DHT22;25713;-35.352;149.036;2024-01-10T03:12:06;23.50;94.80
40023;DHT22;25713;-35.352;149.036;2024-01-10T03:14:37;23.60;93.30
40023;DHT22;25713;-35.352;149.036;2024-01-10T03:17:07;23.70;92.80
40023;DHT22;25713;-35.352;149.036;2024-01-10T03:19:37;23.80;90.30
40023;DHT22;25713;-35.352;149.036;2024-01-10T03:22:07;23.70;91.20
40023;DHT22;25713;-35.352;149.036;2024-01-10T03:24:37;23.60;92.10
40023;DHT22;25713;-35.352;149.036;2024-01-10T03:27:11;23.60;92.90
40023;DHT22;25713;-35.352;149.036;2024-01-10T03:29:41;23.60;91.90
40023;DHT22;25713;-35.352;149.036;2024-01-10T03:32:11;23.70;91.90
40023;DHT22;25713;-35.352;149.036;2024-01-10T03:34:42;23.90;90.00
40023;DHT22;25713;-35.352;149.036;2024-01-10T03:37:12;24.30;84.90
40023;DHT22;25713;-35.352;149.036;2024-01-10T03:39:42;24.20;88.20
40023;DHT22;25713;-35.352;149.036;2024-01-10T03:42:15;24.10;89.50
40023;DHT22;25713;-35.352;149.036;2024-01-10T03:44:45;24.10;90.00
40023;DHT22;25713;-35.352;149.036;2024-01-10T03:47:15;24.20;90.00
40023;DHT22;25713;-35.352;149.036;2024-01-10T03:49:44;24.10;87.90
40023;DHT22;25713;-35.352;149.036;2024-01-10T03:52:14;24.40;86.70
40023;DHT22;25713;-35.352;149.036;2024-01-10T03:54:44;24.10;89.90
40023;DHT22;25713;-35.352;149.036;2024-01-10T03:57:16;23.90;90.90
40023;DHT22;25713;-35.352;149.036;2024-01-10T03:59:46;23.90;90.40
40023;DHT22;25713;-35.352;149.036;2024-01-10T04:02:15;23.90;85.00
40023;DHT22;25713;-35.352;149.036;2024-01-10T04:04:45;24.00;86.30
40023;DHT22;25713;-35.352;149.036;2024-01-10T04:07:14;24.00;89.00
40023;DHT22;25713;-35.352;149.036;2024-01-10T04:09:44;24.30;85.30
40023;DHT22;25713;-35.352;149.036;2024-01-10T04:12:15;24.30;85.60
40023;DHT22;25713;-35.352;149.036;2024-01-10T04:14:45;24.20;88.40
40023;DHT22;25713;-35.352;149.036;2024-01-10T04:17:15;24.30;86.20
40023;DHT22;25713;-35.352;149.036;2024-01-10T04:19:44;24.10;87.70
40023;DHT22;25713;-35.352;149.036;2024-01-10T04:22:14;24.10;87.00
40023;DHT22;25713;-35.352;149.036;2024-01-10T04:24:43;24.00;87.10
40023;DHT22;25713;-35.352;149.036;2024-01-10T04:27:16;24.10;88.70
40023;DHT22;25713;-35.352;149.036;2024-01-10T04:29:49;24.00;87.90
40023;DHT22;25713;-35.352;149.036;2024-01-10T04:32:19;24.10;86.00
40023;DHT22;25713;-35.352;149.036;2024-01-10T04:34:48;24.20;87.20
40023;DHT22;25713;-35.352;149.036;2024-01-10T04:37:19;24.10;87.70
40023;DHT22;25713;-35.352;149.036;2024-01-10T04:39:49;24.10;88.60
40023;DHT22;25713;-35.352;149.036;2024-01-10T04:42:21;24.20;89.00
40023;DHT22;25713;-35.352;149.036;2024-01-10T04:44:50;24.10;90.10
40023;DHT22;25713;-35.352;149.036;2024-01-10T04:47:20;24.10;86.90
40023;DHT22;25713;-35.352;149.036;2024-01-10T04:49:50;24.50;82.50
40023;DHT22;25713;-35.352;149.036;2024-01-10T04:52:19;24.50;82.30
40023;DHT22;25713;-35.352;149.036;2024-01-10T04:54:49;24.40;84.30
40023;DHT22;25713;-35.352;149.036;2024-01-10T04:57:22;24.20;86.00
40023;DHT22;25713;-35.352;149.036;2024-01-10T04:59:51;24.20;84.20
40023;DHT22;25713;-35.352;149.036;2024-01-10T05:02:21;24.40;75.20
40023;DHT22;25713;-35.352;149.036;2024-01-10T05:04:51;24.60;77.80
40023;DHT22;25713;-35.352;149.036;2024-01-10T05:07:20;24.60;77.90
40023;DHT22;25713;-35.352;149.036;2024-01-10T05:09:50;24.60;76.90
40023;DHT22;25713;-35.352;149.036;2024-01-10T05:12:22;24.70;75.40
40023;DHT22;25713;-35.352;149.036;2024-01-10T05:14:53;24.60;78.60
40023;DHT22;25713;-35.352;149.036;2024-01-10T05:17:22;24.80;75.50
40023;DHT22;25713;-35.352;149.036;2024-01-10T05:19:52;24.80;74.30
40023;DHT22;25713;-35.352;149.036;2024-01-10T05:22:21;24.80;75.20
40023;DHT22;25713;-35.352;149.036;2024-01-10T05:24:51;24.90;77.10
40023;DHT22;25713;-35.352;149.036;2024-01-10T05:27:23;24.70;80.50
40023;DHT22;25713;-35.352;149.036;2024-01-10T05:29:53;24.60;84.50
40023;DHT22;25713;-35.352;149.036;2024-01-10T05:32:22;24.60;78.10
40023;DHT22;25713;-35.352;149.036;2024-01-10T05:34:52;24.60;78.40
40023;DHT22;25713;-35.352;149.036;2024-01-10T05:37:22;24.70;78.50
40023;DHT22;25713;-35.352;149.036;2024-01-10T05:39:51;24.50;81.20
40023;DHT22;25713;-35.352;149.036;2024-01-10T05:42:22;24.40;81.30
40023;DHT22;25713;-35.352;149.036;2024-01-10T05:44:52;24.60;80.20
40023;DHT22;25713;-35.352;149.036;2024-01-10T05:47:21;24.50;78.90
40023;DHT22;25713;-35.352;149.036;2024-01-10T05:49:51;24.60;75.90
40023;DHT22;25713;-35.352;149.036;2024-01-10T05:52:21;24.80;75.70
40023;DHT22;25713;-35.352;149.036;2024-01-10T05:54:50;24.90;74.30
40023;DHT22;25713;-35.352;149.036;2024-01-10T05:57:23;25.00;77.90
40023;DHT22;25713;-35.352;149.036;2024-01-10T05:59:53;24.90;77.20
40023;DHT22;25713;-35.352;149.036;2024-01-10T06:02:22;25.00;75.50
40023;DHT22;25713;-35.352;149.036;2024-01-10T06:04:52;25.00;77.90
40023;DHT22;25713;-35.352;149.036;2024-01-10T06:07:22;24.90;78.50
40023;DHT22;25713;-35.352;149.036;2024-01-10T06:09:51;24.70;76.90
40023;DHT22;25713;-35.352;149.036;2024-01-10T06:12:24;24.60;79.70
40023;DHT22;25713;-35.352;149.036;2024-01-10T06:14:54;24.80;77.90
40023;DHT22;25713;-35.352;149.036;2024-01-10T06:17:24;24.90;76.60
40023;DHT22;25713;-35.352;149.036;2024-01-10T06:19:53;25.00;75.00
40023;DHT22;25713;-35.352;149.036;2024-01-10T06:22:23;24.90;78.60
40023;DHT22;25713;-35.352;149.036;2024-01-10T06:24:52;24.80;76.60
40023;DHT22;25713;-35.352;149.036;2024-01-10T06:27:25;24.70;77.60
40023;DHT22;25713;-35.352;149.036;2024-01-10T06:29:54;24.70;80.10
40023;DHT22;25713;-35.352;149.036;2024-01-10T06:32:24;24.60;80.50
40023;DHT22;25713;-35.352;149.036;2024-01-10T06:34:54;24.60;79.70
40023;DHT22;25713;-35.352;149.036;2024-01-10T06:37:23;24.80;79.50
40023;DHT22;25713;-35.352;149.036;2024-01-10T06:39:53;25.00;80.40
40023;DHT22;25713;-35.352;149.036;2024-01-10T06:42:26;25.00;79.20
40023;DHT22;25713;-35.352;149.036;2024-01-10T06:44:55;25.00;79.00
40023;DHT22;25713;-35.352;149.036;2024-01-10T06:47:25;25.00;78.80
40023;DHT22;25713;-35.352;149.036;2024-01-10T06:49:55;25.00;78.80
40023;DHT22;25713;-35.352;149.036;2024-01-10T06:52:24;25.00;80.70
40023;DHT22;25713;-35.352;149.036;2024-01-10T06:54:54;25.00;78.90
40023;DHT22;25713;-35.352;149.036;2024-01-10T06:57:26;24.90;79.70
40023;DHT22;25713;-35.352;149.036;2024-01-10T06:59:55;24.80;81.20
40023;DHT22;25713;-35.352;149.036;2024-01-10T07:02:25;24.70;79.70
40023;DHT22;25713;-35.352;149.036;2024-01-10T07:04:55;24.80;80.10
40023;DHT22;25713;-35.352;149.036;2024-01-10T07:07:24;24.80;79.00
40023;DHT22;25713;-35.352;149.036;2024-01-10T07:09:54;24.70;81.50
40023;DHT22;25713;-35.352;149.036;2024-01-10T07:12:26;24.70;79.80
40023;DHT22;25713;-35.352;149.036;2024-01-10T07:14:56;24.80;81.90
40023;DHT22;25713;-35.352;149.036;2024-01-10T07:17:26;24.70;82.80
40023;DHT22;25713;-35.352;149.036;2024-01-10T07:19:56;24.70;82.00
40023;DHT22;25713;-35.352;149.036;2024-01-10T07:22:25;24.60;83.40
40023;DHT22;25713;-35.352;149.036;2024-01-10T07:24:55;24.80;82.30
40023;DHT22;25713;-35.352;149.036;2024-01-10T07:27:26;24.70;82.60
40023;DHT22;25713;-35.352;149.036;2024-01-10T07:29:56;24.70;82.90
40023;DHT22;25713;-35.352;149.036;2024-01-10T07:32:25;24.70;81.40
40023;DHT22;25713;-35.352;149.036;2024-01-10T07:34:55;24.60;82.10
40023;DHT22;25713;-35.352;149.036;2024-01-10T07:37:25;24.80;81.00
40023;DHT22;25713;-35.352;149.036;2024-01-10T07:39:54;24.80;80.60
40023;DHT22;25713;-35.352;149.036;2024-01-10T07:42:23;24.80;81.90
40023;DHT22;25713;-35.352;149.036;2024-01-10T07:44:57;24.60;82.80
40023;DHT22;25713;-35.352;149.036;2024-01-10T07:47:26;24.60;82.20
40023;DHT22;25713;-35.352;149.036;2024-01-10T07:49:56;24.70;82.60
40023;DHT22;25713;-35.352;149.036;2024-01-10T07:52:25;24.60;82.30
40023;DHT22;25713;-35.352;149.036;2024-01-10T07:54:55;24.60;83.60
40023;DHT22;25713;-35.352;149.036;2024-01-10T07:57:24;24.60;84.40
40023;DHT22;25713;-35.352;149.036;2024-01-10T07:59:56;24.40;85.10
40023;DHT22;25713;-35.352;149.036;2024-01-10T08:02:25;24.40;84.50
40023;DHT22;25713;-35.352;149.036;2024-01-10T08:04:55;24.50;84.10
40023;DHT22;25713;-35.352;149.036;2024-01-10T08:07:25;24.50;85.30
40023;DHT22;25713;-35.352;149.036;2024-01-10T08:09:54;24.50;85.00
40023;DHT22;25713;-35.352;149.036;2024-01-10T08:12:24;24.40;85.00
40023;DHT22;25713;-35.352;149.036;2024-01-10T08:14:55;24.40;84.70
40023;DHT22;25713;-35.352;149.036;2024-01-10T08:17:25;24.40;85.90
40023;DHT22;25713;-35.352;149.036;2024-01-10T08:19:55;24.40;86.00
40023;DHT22;25713;-35.352;149.036;2024-01-10T08:22:24;24.40;87.20
40023;DHT22;25713;-35.352;149.036;2024-01-10T08:24:54;24.40;87.60
40023;DHT22;25713;-35.352;149.036;2024-01-10T08:27:23;24.40;87.50
40023;DHT22;25713;-35.352;149.036;2024-01-10T08:29:53;24.40;86.90
40023;DHT22;25713;-35.352;149.036;2024-01-10T08:32:24;24.50;88.00
40023;DHT22;25713;-35.352;149.036;2024-01-10T08:34:54;24.40;87.20
40023;DHT22;25713;-35.352;149.036;2024-01-10T08:37:24;24.40;90.00
40023;DHT22;25713;-35.352;149.036;2024-01-10T08:39:53;24.40;90.00
40023;DHT22;25713;-35.352;149.036;2024-01-10T08:42:22;24.30;89.90
40023;DHT22;25713;-35.352;149.036;2024-01-10T08:44:52;24.30;90.70
40023;DHT22;25713;-35.352;149.036;2024-01-10T08:47:24;24.30;89.70
40023;DHT22;25713;-35.352;149.036;2024-01-10T08:49:54;24.20;90.10
40023;DHT22;25713;-35.352;149.036;2024-01-10T08:52:23;24.20;90.80
40023;DHT22;25713;-35.352;149.036;2024-01-10T08:54:53;24.10;90.70
40023;DHT22;25713;-35.352;149.036;2024-01-10T08:57:22;24.10;90.90
40023;DHT22;25713;-35.352;149.036;2024-01-10T08:59:52;24.10;90.40
40023;DHT22;25713;-35.352;149.036;2024-01-10T09:02:23;24.00;90.70
40023;DHT22;25713;-35.352;149.036;2024-01-10T09:04:53;24.00;90.20
40023;DHT22;25713;-35.352;149.036;2024-01-10T09:07:23;24.00;90.20
40023;DHT22;25713;-35.352;149.036;2024-01-10T09:09:52;23.90;91.40
40023;DHT22;25713;-35.352;149.036;2024-01-10T09:12:22;23.90;91.10
40023;DHT22;25713;-35.352;149.036;2024-01-10T09:14:52;23.90;90.80
40023;DHT22;25713;-35.352;149.036;2024-01-10T09:17:24;23.80;90.20
40023;DHT22;25713;-35.352;149.036;2024-01-10T09:19:53;23.80;90.30
40023;DHT22;25713;-35.352;149.036;2024-01-10T09:22:23;23.80;91.00
40023;DHT22;25713;-35.352;149.036;2024-01-10T09:24:52;23.80;90.20
40023;DHT22;25713;-35.352;149.036;2024-01-10T09:27:22;23.80;90.50
40023;DHT22;25713;-35.352;149.036;2024-01-10T09:29:51;23.80;90.40
40023;DHT22;25713;-35.352;149.036;2024-01-10T09:32:21;23.80;90.00
40023;DHT22;25713;-35.352;149.036;2024-01-10T09:34:52;23.80;90.00
40023;DHT22;25713;-35.352;149.036;2024-01-10T09:37:22;23.80;90.20
40023;DHT22;25713;-35.352;149.036;2024-01-10T09:39:52;23.80;90.30
40023;DHT22;25713;-35.352;149.036;2024-01-10T09:42:22;23.70;90.40
40023;DHT22;25713;-35.352;149.036;2024-01-10T09:44:51;23.70;90.30
40023;DHT22;25713;-35.352;149.036;2024-01-10T09:47:21;23.70;90.50
40023;DHT22;25713;-35.352;149.036;2024-01-10T09:49:52;23.70;91.30
40023;DHT22;25713;-35.352;149.036;2024-01-10T09:52:25;23.60;90.50
40023;DHT22;25713;-35.352;149.036;2024-01-10T09:54:55;23.60;91.20
40023;DHT22;25713;-35.352;149.036;2024-01-10T09:57:25;23.60;90.40
40023;DHT22;25713;-35.352;149.036;2024-01-10T09:59:55;23.50;91.40
40023;DHT22;25713;-35.352;149.036;2024-01-10T10:02:25;23.40;91.80
40023;DHT22;25713;-35.352;149.036;2024-01-10T10:05:02;23.40;92.20
40023;DHT22;25713;-35.352;149.036;2024-01-10T10:07:32;23.30;92.00
40023;DHT22;25713;-35.352;149.036;2024-01-10T10:10:12;23.30;91.80
40023;DHT22;25713;-35.352;149.036;2024-01-10T10:12:45;23.30;92.10
40023;DHT22;25713;-35.352;149.036;2024-01-10T10:15:15;23.30;92.70
40023;DHT22;25713;-35.352;149.036;2024-01-10T10:17:46;23.30;93.00
40023;DHT22;25713;-35.352;149.036;2024-01-10T10:20:21;23.30;93.50
40023;DHT22;25713;-35.352;149.036;2024-01-10T10:23:01;23.30;94.00
40023;DHT22;25713;-35.352;149.036;2024-01-10T10:25:32;23.30;94.50
40023;DHT22;25713;-35.352;149.036;2024-01-10T10:28:02;23.30;94.80
40023;DHT22;25713;-35.352;149.036;2024-01-10T10:30:32;23.30;95.10
40023;DHT22;25713;-35.352;149.036;2024-01-10T10:33:02;23.30;95.50
40023;DHT22;25713;-35.352;149.036;2024-01-10T10:35:34;23.30;96.10
40023;DHT22;25713;-35.352;149.036;2024-01-10T10:38:03;23.30;96.10
40023;DHT22;25713;-35.352;149.036;2024-01-10T10:40:32;23.30;96.30
40023;DHT22;25713;-35.352;149.036;2024-01-10T10:43:05;23.20;96.40
40023;DHT22;25713;-35.352;149.036;2024-01-10T10:45:34;23.20;96.50
40023;DHT22;25713;-35.352;149.036;2024-01-10T10:48:07;23.20;96.70
40023;DHT22;25713;-35.352;149.036;2024-01-10T10:50:40;23.20;97.00
40023;DHT22;25713;-35.352;149.036;2024-01-10T10:53:10;23.20;97.10
40023;DHT22;25713;-35.352;149.036;2024-01-10T10:55:40;23.20;97.30
40023;DHT22;25713;-35.352;149.036;2024-01-10T10:58:10;23.20;97.30
40023;DHT22;25713;-35.352;149.036;2024-01-10T11:00:41;23.20;97.20
40023;DHT22;25713;-35.352;149.036;2024-01-10T11:03:12;23.20;97.50
40023;DHT22;25713;-35.352;149.036;2024-01-10T11:05:44;23.10;97.50
40023;DHT22;25713;-35.352;149.036;2024-01-10T11:08:16;23.20;97.60
40023;DHT22;25713;-35.352;149.036;2024-01-10T11:10:47;23.10;97.60
40023;DHT22;25713;-35.352;149.036;2024-01-10T11:13:28;23.10;97.80
40023;DHT22;25713;-35.352;149.036;2024-01-10T11:19:32;23.10;97.90
40023;DHT22;25713;-35.352;149.036;2024-01-10T11:22:15;23.10;98.30
40023;DHT22;25713;-35.352;149.036;2024-01-10T11:24:46;23.10;98.30
40023;DHT22;25713;-35.352;149.036;2024-01-10T11:27:16;23.00;98.10
40023;DHT22;25713;-35.352;149.036;2024-01-10T11:29:47;23.00;98.40
40023;DHT22;25713;-35.352;149.036;2024-01-10T11:32:17;23.00;98.50
40023;DHT22;25713;-35.352;149.036;2024-01-10T11:34:57;23.00;98.70
40023;DHT22;25713;-35.352;149.036;2024-01-10T11:37:41;23.00;98.70
40023;DHT22;25713;-35.352;149.036;2024-01-10T11:40:13;22.90;98.60
40023;DHT22;25713;-35.352;149.036;2024-01-10T11:42:45;22.90;98.90
40023;DHT22;25713;-35.352;149.036;2024-01-10T11:45:37;22.90;99.10
40023;DHT22;25713;-35.352;149.036;2024-01-10T11:48:09;22.90;99.00
40023;DHT22;25713;-35.352;149.036;2024-01-10T11:50:38;22.90;99.10
40023;DHT22;25713;-35.352;149.036;2024-01-10T11:53:09;22.90;99.10
40023;DHT22;25713;-35.352;149.036;2024-01-10T11:55:52;22.90;99.30
40023;DHT22;25713;-35.352;149.036;2024-01-10T11:58:24;22.80;99.00
40023;DHT22;25713;-35.352;149.036;2024-01-10T12:00:54;22.80;99.00
40023;DHT22;25713;-35.352;149.036;2024-01-10T12:03:23;22.80;99.10
40023;DHT22;25713;-35.352;149.036;2024-01-10T12:05:53;22.80;99.20
40023;DHT22;25713;-35.352;149.036;2024-01-10T12:08:24;22.80;99.20
40023;DHT22;25713;-35.352;149.036;2024-01-10T12:10:54;22.80;99.30
40023;DHT22;25713;-35.352;149.036;2024-01-10T12:13:24;22.80;99.30
40023;DHT22;25713;-35.352;149.036;2024-01-10T12:15:53;22.80;99.30
40023;DHT22;25713;-35.352;149.036;2024-01-10T12:18:23;22.80;99.80
40023;DHT22;25713;-35.352;149.036;2024-01-10T12:20:53;22.70;99.40
40023;DHT22;25713;-35.352;149.036;2024-01-10T12:23:24;22.70;99.50
40023;DHT22;25713;-35.352;149.036;2024-01-10T12:25:54;22.70;99.70
40023;DHT22;25713;-35.352;149.036;2024-01-10T12:28:24;22.70;99.70
40023;DHT22;25713;-35.352;149.036;2024-01-10T12:30:54;22.70;99.70
40023;DHT22;25713;-35.352;149.036;2024-01-10T12:33:24;22.70;99.70
40023;DHT22;25713;-35.352;149.036;2024-01-10T12:36:07;22.70;99.70
40023;DHT22;25713;-35.352;149.036;2024-01-10T12:38:40;22.70;99.90
40023;DHT22;25713;-35.352;149.036;2024-01-10T12:41:10;22.70;99.90
40023;DHT22;25713;-35.352;149.036;2024-01-10T12:43:41;22.70;99.90
40023;DHT22;25713;-35.352;149.036;2024-01-10T12:46:10;22.70;99.90
40023;DHT22;25713;-35.352;149.036;2024-01-10T12:48:41;22.60;99.90
40023;DHT22;25713;-35.352;149.036;2024-01-10T12:51:12;22.60;99.90
40023;DHT22;25713;-35.352;149.036;2024-01-10T12:53:44;22.60;99.90
40023;DHT22;25713;-35.352;149.036;2024-01-10T12:56:12;22.70;99.90
40023;DHT22;25713;-35.352;149.036;2024-01-10T12:58:42;22.70;99.90
40023;DHT22;25713;-35.352;149.036;2024-01-10T13:01:11;22.70;99.90
40023;DHT22;25713;-35.352;149.036;2024-01-10T13:03:41;22.70;99.90
40023;DHT22;25713;-35.352;149.036;2024-01-10T13:06:11;22.60;99.90
40023;DHT22;25713;-35.352;149.036;2024-01-10T13:08:42;22.60;99.90
40023;DHT22;25713;-35.352;149.036;2024-01-10T13:11:12;22.60;99.90
40023;DHT22;25713;-35.352;149.036;2024-01-10T13:13:43;22.60;99.90
40023;DHT22;25713;-35.352;149.036;2024-01-10T13:16:12;22.60;99.90
40023;DHT22;25713;-35.352;149.036;2024-01-10T13:18:42;22.60;99.90
40023;DHT22;25713;-35.352;149.036;2024-01-10T13:21:11;22.60;99.90
40023;DHT22;25713;-35.352;149.036;2024-01-10T13:23:42;22.50;99.90
40023;DHT22;25713;-35.352;149.036;2024-01-10T13:26:12;22.50;99.90
40023;DHT22;25713;-35.352;149.036;2024-01-10T13:28:41;22.50;99.90
40023;DHT22;25713;-35.352;149.036;2024-01-10T13:31:11;22.50;99.90
40023;DHT22;25713;-35.352;149.036;2024-01-10T13:33:41;22.50;99.90
40023;DHT22;25713;-35.352;149.036;2024-01-10T13:36:10;22.50;99.90
40023;DHT22;25713;-35.352;149.036;2024-01-10T13:38:40;22.50;99.90
40023;DHT22;25713;-35.352;149.036;2024-01-10T13:41:11;22.50;99.90
40023;DHT22;25713;-35.352;149.036;2024-01-10T13:43:41;22.40;99.90
40023;DHT22;25713;-35.352;149.036;2024-01-10T13:46:10;22.40;99.90
40023;DHT22;25713;-35.352;149.036;2024-01-10T13:48:40;22.40;99.90
40023;DHT22;25713;-35.352;149.036;2024-01-10T13:51:09;22.40;99.90
40023;DHT22;25713;-35.352;149.036;2024-01-10T13:53:39;22.40;99.90
40023;DHT22;25713;-35.352;149.036;2024-01-10T13:56:11;22.40;99.90
40023;DHT22;25713;-35.352;149.036;2024-01-10T13:58:39;22.40;99.90
40023;DHT22;25713;-35.352;149.036;2024-01-10T14:01:09;22.40;99.90
40023;DHT22;25713;-35.352;149.036;2024-01-10T14:03:38;22.40;99.90
40023;DHT22;25713;-35.352;149.036;2024-01-10T14:06:08;22.40;99.90
40023;DHT22;25713;-35.352;149.036;2024-01-10T14:08:37;22.40;99.90
40023;DHT22;25713;-35.352;149.036;2024-01-10T14:11:07;22.40;99.90
40023;DHT22;25713;-35.352;149.036;2024-01-10T14:13:39;22.40;99.90
40023;DHT22;25713;-35.352;149.036;2024-01-10T14:16:08;22.40;99.90
40023;DHT22;25713;-35.352;149.036;2024-01-10T14:18:38;22.40;99.90
40023;DHT22;25713;-35.352;149.036;2024-01-10T14:21:08;22.40;99.90
40023;DHT22;25713;-35.352;149.036;2024-01-10T14:23:37;22.40;99.90
40023;DHT22;25713;-35.352;149.036;2024-01-10T14:26:07;22.40;99.90
40023;DHT22;25713;-35.352;149.036;2024-01-10T14:28:38;22.30;99.90
40023;DHT22;25713;-35.352;149.036;2024-01-10T14:31:08;22.30;99.90
40023;DHT22;25713;-35.352;149.036;2024-01-10T14:33:38;22.30;99.90
40023;DHT22;25713;-35.352;149.036;2024-01-10T14:36:08;22.30;99.90
40023;DHT22;25713;-35.352;149.036;2024-01-10T14:38:38;22.30;99.90
40023;DHT22;25713;-35.352;149.036;2024-01-10T14:41:09;22.30;99.90
40023;DHT22;25713;-35.352;149.036;2024-01-10T14:43:40;22.30;99.90
40023;DHT22;25713;-35.352;149.036;2024-01-10T15:47:20;21.90;99.90
40023;DHT22;25713;-35.352;149.036;2024-01-10T15:49:49;21.90;99.90
40023;DHT22;25713;-35.352;149.036;2024-01-10T15:52:19;21.90;99.90
40023;DHT22;25713;-35.352;149.036;2024-01-10T15:54:48;21.90;99.90
40023;DHT22;25713;-35.352;149.036;2024-01-10T15:57:18;21.90;99.90
40023;DHT22;25713;-35.352;149.036;2024-01-10T15:59:47;21.90;99.90
40023;DHT22;25713;-35.352;149.036;2024-01-10T16:02:20;21.90;99.90
40023;DHT22;25713;-35.352;149.036;2024-01-10T16:04:50;21.90;99.90
40023;DHT22;25713;-35.352;149.036;2024-01-10T16:07:20;21.90;99.90
40023;DHT22;25713;-35.352;149.036;2024-01-10T16:09:49;21.90;99.90
40023;DHT22;25713;-35.352;149.036;2024-01-10T16:12:20;21.90;99.90
40023;DHT22;25713;-35.352;149.036;2024-01-10T16:14:49;22.00;99.90